sensor_id;sensor_type;location;lat;lon;timestamp;pressure;altitude;pressure_sealevel;temperature;humidity
40940;BME280;26666;50.156;7.700;2023-03-03T00:02:25;100907.19;;;2.52;73.42
40940;BME280;26666;50.156;7.700;2023-03-03T00:07:26;100913.75;;;2.61;73.06
40940;BME280;26666;50.156;7.700;2023-03-03T00:12:28;100914.88;;;2.34;74.42
40940;BME280;26666;50.156;7.700;2023-03-03T00:17:30;100919.09;;;2.37;74.42
40940;BME280;26666;50.156;7.700;2023-03-03T00:22:35;100929.66;;;2.54;74.45
40940;BME280;26666;50.156;7.700;2023-03-03T00:27:37;100934.97;;;2.32;74.13
40940;BME280;26666;50.156;7.700;2023-03-03T00:32:43;100935.72;;;2.34;74.10
40940;BME280;26666;50.156;7.700;2023-03-03T00:37:45;100941.31;;;2.25;74.38
40940;BME280;26666;50.156;7.700;2023-03-03T00:42:53;100942.72;;;2.34;74.20
40940;BME280;26666;50.156;7.700;2023-03-03T00:47:55;100936.53;;;2.36;74.69
40940;BME280;26666;50.156;7.700;2023-03-03T00:52:58;100943.63;;;2.33;74.52
40940;BME280;26666;50.156;7.700;2023-03-03T00:58:00;100943.25;;;2.42;74.83
40940;BME280;26666;50.156;7.700;2023-03-03T01:03:06;100929.28;;;2.23;74.51
40940;BME280;26666;50.156;7.700;2023-03-03T01:08:08;100944.13;;;2.21;75.47
40940;BME280;26666;50.156;7.700;2023-03-03T01:13:09;100944.00;;;2.24;75.80
40940;BME280;26666;50.156;7.700;2023-03-03T01:18:11;100930.03;;;2.04;75.74
40940;BME280;26666;50.156;7.700;2023-03-03T01:23:12;100943.34;;;2.19;76.04
40940;BME280;26666;50.156;7.700;2023-03-03T01:28:14;100940.06;;;2.13;76.21
40940;BME280;26666;50.156;7.700;2023-03-03T01:33:15;100939.50;;;2.07;75.75
40940;BME280;26666;50.156;7.700;2023-03-03T01:38:17;100935.66;;;2.15;76.00
40940;BME280;26666;50.156;7.700;2023-03-03T01:43:18;100943.78;;;2.08;76.71
40940;BME280;26666;50.156;7.700;2023-03-03T01:53:29;100944.09;;;2.00;75.64
40940;BME280;26666;50.156;7.700;2023-03-03T01:58:43;100935.31;;;2.03;76.37
40940;BME280;26666;50.156;7.700;2023-03-03T02:03:46;100929.50;;;1.96;76.04
40940;BME280;26666;50.156;7.700;2023-03-03T02:08:53;100925.06;;;1.98;76.73
40940;BME280;26666;50.156;7.700;2023-03-03T02:13:55;100923.31;;;1.99;76.60
40940;BME280;26666;50.156;7.700;2023-03-03T02:18:57;100923.50;;;1.94;76.99
40940;BME280;26666;50.156;7.700;2023-03-03T02:29:09;100928.28;;;1.83;77.36
40940;BME280;26666;50.156;7.700;2023-03-03T02:34:11;100937.75;;;1.85;77.18
40940;BME280;26666;50.156;7.700;2023-03-03T02:39:16;100932.06;;;1.75;77.14
40940;BME280;26666;50.156;7.700;2023-03-03T02:44:22;100937.63;;;1.66;77.56
40940;BME280;26666;50.156;7.700;2023-03-03T02:49:25;100945.56;;;1.85;77.50
40940;BME280;26666;50.156;7.700;2023-03-03T02:54:27;100938.59;;;1.64;78.36
40940;BME280;26666;50.156;7.700;2023-03-03T02:59:29;100951.63;;;1.64;78.55
40940;BME280;26666;50.156;7.700;2023-03-03T03:04:30;100947.44;;;1.60;78.41
40940;BME280;26666;50.156;7.700;2023-03-03T03:09:32;100940.19;;;1.68;78.46
40940;BME280;26666;50.156;7.700;2023-03-03T03:14:34;100950.09;;;1.58;78.33
40940;BME280;26666;50.156;7.700;2023-03-03T03:19:35;100949.88;;;1.64;78.69
40940;BME280;26666;50.156;7.700;2023-03-03T03:24:36;100953.91;;;1.49;78.36
40940;BME280;26666;50.156;7.700;2023-03-03T03:29:38;100957.00;;;1.59;78.08
40940;BME280;26666;50.156;7.700;2023-03-03T03:34:39;100955.84;;;1.44;79.93
40940;BME280;26666;50.156;7.700;2023-03-03T03:39:41;100957.13;;;1.56;79.34
40940;BME280;26666;50.156;7.700;2023-03-03T03:44:42;100954.19;;;1.42;79.83
40940;BME280;26666;50.156;7.700;2023-03-03T03:49:43;100962.88;;;1.64;79.87
40940;BME280;26666;50.156;7.700;2023-03-03T03:54:45;100962.44;;;1.53;80.34
40940;BME280;26666;50.156;7.700;2023-03-03T03:59:48;100963.56;;;1.46;79.85
40940;BME280;26666;50.156;7.700;2023-03-03T04:04:49;100972.75;;;1.56;80.34
40940;BME280;26666;50.156;7.700;2023-03-03T04:09:50;100966.19;;;1.46;80.18
40940;BME280;26666;50.156;7.700;2023-03-03T04:14:52;100970.78;;;1.39;80.65
40940;BME280;26666;50.156;7.700;2023-03-03T04:19:53;100975.38;;;1.32;80.60
40940;BME280;26666;50.156;7.700;2023-03-03T04:24:55;100976.88;;;1.38;80.88
40940;BME280;26666;50.156;7.700;2023-03-03T04:29:56;100965.47;;;1.42;80.53
40940;BME280;26666;50.156;7.700;2023-03-03T04:34:57;100968.00;;;1.44;80.42
40940;BME280;26666;50.156;7.700;2023-03-03T04:40:08;100981.50;;;1.53;80.55
40940;BME280;26666;50.156;7.700;2023-03-03T04:45:10;100974.97;;;1.43;80.48
40940;BME280;26666;50.156;7.700;2023-03-03T04:50:11;100974.13;;;1.43;80.92
40940;BME280;26666;50.156;7.700;2023-03-03T04:55:13;100976.28;;;1.31;81.23
40940;BME280;26666;50.156;7.700;2023-03-03T05:00:14;100987.53;;;1.32;81.51
40940;BME280;26666;50.156;7.700;2023-03-03T05:05:16;100975.47;;;1.53;80.85
40940;BME280;26666;50.156;7.700;2023-03-03T05:10:17;100972.03;;;1.29;81.31
40940;BME280;26666;50.156;7.700;2023-03-03T05:15:19;100985.16;;;1.26;80.97
40940;BME280;26666;50.156;7.700;2023-03-03T05:20:21;100985.56;;;1.38;80.95
40940;BME280;26666;50.156;7.700;2023-03-03T05:25:23;100995.47;;;1.29;81.72
40940;BME280;26666;50.156;7.700;2023-03-03T05:30:24;100996.72;;;1.42;80.92
40940;BME280;26666;50.156;7.700;2023-03-03T05:35:26;101009.78;;;1.41;81.29
40940;BME280;26666;50.156;7.700;2023-03-03T05:40:27;101007.69;;;1.27;81.12
40940;BME280;26666;50.156;7.700;2023-03-03T05:45:28;101009.03;;;1.13;81.29
40940;BME280;26666;50.156;7.700;2023-03-03T05:50:30;100998.69;;;1.12;82.35
40940;BME280;26666;50.156;7.700;2023-03-03T05:55:32;101015.03;;;1.15;81.38
40940;BME280;26666;50.156;7.700;2023-03-03T06:00:33;101008.41;;;1.30;81.48
40940;BME280;26666;50.156;7.700;2023-03-03T06:05:35;101008.72;;;1.23;81.90
40940;BME280;26666;50.156;7.700;2023-03-03T06:10:36;101013.22;;;1.17;81.88
40940;BME280;26666;50.156;7.700;2023-03-03T06:15:38;101022.91;;;1.14;82.38
40940;BME280;26666;50.156;7.700;2023-03-03T06:20:39;101028.47;;;1.03;83.31
40940;BME280;26666;50.156;7.700;2023-03-03T06:25:41;101042.94;;;1.35;82.89
40940;BME280;26666;50.156;7.700;2023-03-03T06:30:42;101050.50;;;1.18;82.79
40940;BME280;26666;50.156;7.700;2023-03-03T06:35:44;101061.78;;;1.18;83.19
40940;BME280;26666;50.156;7.700;2023-03-03T06:40:49;101054.72;;;1.22;83.36
40940;BME280;26666;50.156;7.700;2023-03-03T06:45:50;101060.63;;;1.27;82.38
40940;BME280;26666;50.156;7.700;2023-03-03T06:50:52;101064.44;;;1.42;82.15
40940;BME280;26666;50.156;7.700;2023-03-03T06:55:54;101071.53;;;1.37;83.41
40940;BME280;26666;50.156;7.700;2023-03-03T07:00:57;101073.69;;;1.73;83.25
40940;BME280;26666;50.156;7.700;2023-03-03T07:05:59;101093.75;;;1.47;83.08
40940;BME280;26666;50.156;7.700;2023-03-03T07:11:01;101108.22;;;1.56;85.30
40940;BME280;26666;50.156;7.700;2023-03-03T07:16:08;101109.75;;;1.85;85.46
40940;BME280;26666;50.156;7.700;2023-03-03T07:31:40;101117.31;;;2.37;87.85
40940;BME280;26666;50.156;7.700;2023-03-03T07:36:45;101137.47;;;2.55;87.60
40940;BME280;26666;50.156;7.700;2023-03-03T07:41:47;101147.66;;;2.62;87.59
40940;BME280;26666;50.156;7.700;2023-03-03T07:46:49;101159.97;;;2.80;88.07
40940;BME280;26666;50.156;7.700;2023-03-03T07:51:54;101160.31;;;2.72;88.10
40940;BME280;26666;50.156;7.700;2023-03-03T08:07:30;101172.06;;;2.83;89.12
40940;BME280;26666;50.156;7.700;2023-03-03T08:17:34;101183.16;;;3.10;88.71
40940;BME280;26666;50.156;7.700;2023-03-03T08:22:36;101182.09;;;3.14;88.44
40940;BME280;26666;50.156;7.700;2023-03-03T08:27:38;101173.94;;;3.22;87.91
40940;BME280;26666;50.156;7.700;2023-03-03T08:32:39;101184.50;;;2.98;87.67
40940;BME280;26666;50.156;7.700;2023-03-03T08:37:40;101181.25;;;3.13;88.14
40940;BME280;26666;50.156;7.700;2023-03-03T08:42:42;101183.69;;;3.18;87.74
40940;BME280;26666;50.156;7.700;2023-03-03T08:47:43;101180.69;;;3.27;87.53
40940;BME280;26666;50.156;7.700;2023-03-03T08:52:45;101197.03;;;3.10;88.52
40940;BME280;26666;50.156;7.700;2023-03-03T08:57:46;101186.53;;;3.32;86.41
40940;BME280;26666;50.156;7.700;2023-03-03T09:02:48;101190.56;;;3.41;86.99
40940;BME280;26666;50.156;7.700;2023-03-03T09:07:50;101199.88;;;3.26;87.53
40940;BME280;26666;50.156;7.700;2023-03-03T09:12:52;101204.97;;;3.50;85.84
40940;BME280;26666;50.156;7.700;2023-03-03T09:17:56;101204.25;;;3.46;86.96
40940;BME280;26666;50.156;7.700;2023-03-03T09:22:59;101202.19;;;3.54;85.92
40940;BME280;26666;50.156;7.700;2023-03-03T09:28:27;101208.13;;;3.58;86.30
40940;BME280;26666;50.156;7.700;2023-03-03T09:38:31;101216.09;;;3.75;85.31
40940;BME280;26666;50.156;7.700;2023-03-03T09:48:49;101214.84;;;3.84;84.67
40940;BME280;26666;50.156;7.700;2023-03-03T09:54:03;101224.78;;;3.76;86.08
40940;BME280;26666;50.156;7.700;2023-03-03T09:59:26;101216.78;;;3.79;85.64
40940;BME280;26666;50.156;7.700;2023-03-03T10:30:20;101241.06;;;4.22;82.87
40940;BME280;26666;50.156;7.700;2023-03-03T10:35:57;101235.34;;;4.33;82.33
40940;BME280;26666;50.156;7.700;2023-03-03T10:41:21;101239.56;;;4.35;81.35
40940;BME280;26666;50.156;7.700;2023-03-03T10:51:58;101252.47;;;4.59;81.45
40940;BME280;26666;50.156;7.700;2023-03-03T10:57:15;101267.47;;;4.74;81.29
40940;BME280;26666;50.156;7.700;2023-03-03T11:02:31;101264.72;;;4.59;80.22
40940;BME280;26666;50.156;7.700;2023-03-03T11:12:52;101263.16;;;4.73;79.50
40940;BME280;26666;50.156;7.700;2023-03-03T11:23:04;101254.22;;;4.97;79.03
40940;BME280;26666;50.156;7.700;2023-03-03T11:33:22;101245.13;;;5.04;79.39
40940;BME280;26666;50.156;7.700;2023-03-03T11:43:51;101239.59;;;4.73;79.23
40940;BME280;26666;50.156;7.700;2023-03-03T11:49:04;101230.47;;;5.00;79.11
40940;BME280;26666;50.156;7.700;2023-03-03T11:54:21;101228.44;;;5.06;77.20
40940;BME280;26666;50.156;7.700;2023-03-03T11:59:28;101220.97;;;5.16;78.10
40940;BME280;26666;50.156;7.700;2023-03-03T12:04:35;101212.94;;;5.19;79.44
40940;BME280;26666;50.156;7.700;2023-03-03T12:14:56;101192.38;;;5.29;77.96
40940;BME280;26666;50.156;7.700;2023-03-03T12:20:17;101172.13;;;5.32;78.80
40940;BME280;26666;50.156;7.700;2023-03-03T12:30:34;101160.72;;;5.51;77.68
40940;BME280;26666;50.156;7.700;2023-03-03T12:41:12;101134.59;;;5.65;77.98
40940;BME280;26666;50.156;7.700;2023-03-03T12:56:23;101119.97;;;5.61;77.82
40940;BME280;26666;50.156;7.700;2023-03-03T13:06:47;101122.53;;;5.79;77.82
40940;BME280;26666;50.156;7.700;2023-03-03T13:12:06;101126.00;;;5.79;78.57
40940;BME280;26666;50.156;7.700;2023-03-03T13:22:17;101110.69;;;5.71;77.96
40940;BME280;26666;50.156;7.700;2023-03-03T13:27:24;101102.22;;;5.66;78.75
40940;BME280;26666;50.156;7.700;2023-03-03T13:37:47;101113.09;;;5.92;77.30
40940;BME280;26666;50.156;7.700;2023-03-03T13:58:42;101114.88;;;5.58;78.54
40940;BME280;26666;50.156;7.700;2023-03-03T14:03:58;101113.06;;;5.76;77.94
40940;BME280;26666;50.156;7.700;2023-03-03T14:09:09;101100.53;;;5.65;78.19
40940;BME280;26666;50.156;7.700;2023-03-03T14:19:36;101098.34;;;5.73;77.62
40940;BME280;26666;50.156;7.700;2023-03-03T14:35:22;101089.25;;;5.97;76.31
40940;BME280;26666;50.156;7.700;2023-03-03T14:40:29;101092.13;;;5.92;77.96
40940;BME280;26666;50.156;7.700;2023-03-03T14:45:37;101093.22;;;5.88;77.97
40940;BME280;26666;50.156;7.700;2023-03-03T14:50:40;101094.94;;;5.71;78.82
40940;BME280;26666;50.156;7.700;2023-03-03T14:55:43;101093.09;;;5.89;77.33
40940;BME280;26666;50.156;7.700;2023-03-03T15:00:45;101093.03;;;5.91;78.01
40940;BME280;26666;50.156;7.700;2023-03-03T15:05:50;101098.47;;;5.88;79.02
40940;BME280;26666;50.156;7.700;2023-03-03T15:10:52;101092.00;;;5.78;78.97
40940;BME280;26666;50.156;7.700;2023-03-03T15:21:02;101087.91;;;5.72;78.91
40940;BME280;26666;50.156;7.700;2023-03-03T15:26:09;101080.59;;;5.79;78.96
40940;BME280;26666;50.156;7.700;2023-03-03T15:36:38;101071.00;;;5.78;79.21
40940;BME280;26666;50.156;7.700;2023-03-03T15:41:45;101072.63;;;5.64;79.04
40940;BME280;26666;50.156;7.700;2023-03-03T15:47:03;101078.53;;;5.68;80.40
40940;BME280;26666;50.156;7.700;2023-03-03T16:02:18;101083.13;;;5.64;79.71
40940;BME280;26666;50.156;7.700;2023-03-03T16:07:34;101087.75;;;5.59;81.01
40940;BME280;26666;50.156;7.700;2023-03-03T16:12:46;101085.59;;;5.50;81.14
40940;BME280;26666;50.156;7.700;2023-03-03T16:23:15;101095.06;;;5.52;80.16
40940;BME280;26666;50.156;7.700;2023-03-03T16:28:41;101109.13;;;5.51;80.12
40940;BME280;26666;50.156;7.700;2023-03-03T16:38:40;101112.47;;;5.38;79.80
40940;BME280;26666;50.156;7.700;2023-03-03T16:49:52;101133.06;;;5.28;79.02
40940;BME280;26666;50.156;7.700;2023-03-03T17:04:53;101147.22;;;5.06;79.47
40940;BME280;26666;50.156;7.700;2023-03-03T17:10:02;101160.72;;;4.99;79.51
40940;BME280;26666;50.156;7.700;2023-03-03T17:15:11;101166.16;;;4.94;79.49
40940;BME280;26666;50.156;7.700;2023-03-03T17:20:20;101172.41;;;4.91;79.59
40940;BME280;26666;50.156;7.700;2023-03-03T17:35:53;101183.50;;;4.60;80.37
40940;BME280;26666;50.156;7.700;2023-03-03T17:41:07;101195.44;;;4.66;79.88
40940;BME280;26666;50.156;7.700;2023-03-03T17:46:20;101208.13;;;4.56;80.48
40940;BME280;26666;50.156;7.700;2023-03-03T17:51:35;101213.94;;;4.44;80.61
40940;BME280;26666;50.156;7.700;2023-03-03T17:56:47;101216.63;;;4.42;80.46
40940;BME280;26666;50.156;7.700;2023-03-03T18:27:42;101247.31;;;3.79;82.31
40940;BME280;26666;50.156;7.700;2023-03-03T18:38:21;101263.34;;;3.50;82.61
40940;BME280;26666;50.156;7.700;2023-03-03T18:48:50;101274.16;;;3.41;83.62
40940;BME280;26666;50.156;7.700;2023-03-03T18:54:27;101272.00;;;3.51;83.87
40940;BME280;26666;50.156;7.700;2023-03-03T19:04:33;101276.25;;;3.33;83.59
40940;BME280;26666;50.156;7.700;2023-03-03T19:09:49;101279.28;;;3.22;83.38
40940;BME280;26666;50.156;7.700;2023-03-03T19:14:51;101283.47;;;3.04;83.58
40940;BME280;26666;50.156;7.700;2023-03-03T19:20:07;101294.31;;;2.93;84.13
40940;BME280;26666;50.156;7.700;2023-03-03T19:25:25;101293.97;;;3.03;84.11
40940;BME280;26666;50.156;7.700;2023-03-03T19:35:56;101294.59;;;2.86;84.13
40940;BME280;26666;50.156;7.700;2023-03-03T19:41:09;101299.69;;;2.67;84.75
40940;BME280;26666;50.156;7.700;2023-03-03T19:51:39;101305.78;;;2.89;84.55
40940;BME280;26666;50.156;7.700;2023-03-03T19:56:49;101309.50;;;2.60;85.42
40940;BME280;26666;50.156;7.700;2023-03-03T20:17:35;101320.78;;;2.61;86.46
40940;BME280;26666;50.156;7.700;2023-03-03T20:43:07;101333.09;;;2.08;89.27
40940;BME280;26666;50.156;7.700;2023-03-03T20:48:30;101337.09;;;1.92;90.11
40940;BME280;26666;50.156;7.700;2023-03-03T20:59:03;101336.47;;;1.85;91.37
40940;BME280;26666;50.156;7.700;2023-03-03T21:04:21;101330.63;;;2.04;90.47
40940;BME280;26666;50.156;7.700;2023-03-03T21:14:34;101327.72;;;1.86;91.17
40940;BME280;26666;50.156;7.700;2023-03-03T21:19:35;101334.44;;;1.93;91.46
40940;BME280;26666;50.156;7.700;2023-03-03T21:24:47;101331.94;;;1.90;91.65
40940;BME280;26666;50.156;7.700;2023-03-03T21:30:00;101332.91;;;1.88;91.24
40940;BME280;26666;50.156;7.700;2023-03-03T21:35:03;101331.38;;;2.07;91.64
40940;BME280;26666;50.156;7.700;2023-03-03T21:40:13;101336.50;;;1.84;91.38
40940;BME280;26666;50.156;7.700;2023-03-03T21:45:15;101338.41;;;1.78;91.23
40940;BME280;26666;50.156;7.700;2023-03-03T21:50:17;101350.44;;;1.83;92.83
40940;BME280;26666;50.156;7.700;2023-03-03T21:55:18;101341.44;;;1.93;90.48
40940;BME280;26666;50.156;7.700;2023-03-03T22:00:20;101343.06;;;1.69;92.17
40940;BME280;26666;50.156;7.700;2023-03-03T22:05:21;101351.59;;;1.74;91.60
40940;BME280;26666;50.156;7.700;2023-03-03T22:10:22;101349.50;;;1.85;89.55
40940;BME280;26666;50.156;7.700;2023-03-03T22:15:24;101341.72;;;1.57;91.42
40940;BME280;26666;50.156;7.700;2023-03-03T22:20:25;101338.34;;;1.53;91.21
40940;BME280;26666;50.156;7.700;2023-03-03T22:25:26;101342.69;;;1.54;91.90
40940;BME280;26666;50.156;7.700;2023-03-03T22:30:28;101350.66;;;1.76;91.08
40940;BME280;26666;50.156;7.700;2023-03-03T22:35:29;101350.81;;;1.44;91.38
40940;BME280;26666;50.156;7.700;2023-03-03T22:40:31;101346.25;;;1.52;90.46
40940;BME280;26666;50.156;7.700;2023-03-03T22:45:32;101346.28;;;1.22;91.56
40940;BME280;26666;50.156;7.700;2023-03-03T22:50:34;101356.06;;;1.15;91.89
40940;BME280;26666;50.156;7.700;2023-03-03T22:55:35;101354.72;;;1.02;91.93
40940;BME280;26666;50.156;7.700;2023-03-03T23:00:37;101351.44;;;0.95;91.71
40940;BME280;26666;50.156;7.700;2023-03-03T23:05:38;101352.34;;;0.94;91.37
40940;BME280;26666;50.156;7.700;2023-03-03T23:10:40;101356.00;;;0.87;92.02
40940;BME280;26666;50.156;7.700;2023-03-03T23:15:41;101348.34;;;0.83;92.32
40940;BME280;26666;50.156;7.700;2023-03-03T23:20:43;101350.09;;;0.82;92.36
40940;BME280;26666;50.156;7.700;2023-03-03T23:25:44;101354.31;;;0.86;91.22
40940;BME280;26666;50.156;7.700;2023-03-03T23:30:46;101348.41;;;0.79;92.79
40940;BME280;26666;50.156;7.700;2023-03-03T23:35:47;101352.03;;;0.74;91.79
40940;BME280;26666;50.156;7.700;2023-03-03T23:40:49;101350.66;;;0.62;92.14
40940;BME280;26666;50.156;7.700;2023-03-03T23:45:50;101347.53;;;0.81;91.95
40940;BME280;26666;50.156;7.700;2023-03-03T23:50:51;101347.53;;;0.81;91.96
40940;BME280;26666;50.156;7.700;2023-03-03T23:55:53;101346.84;;;0.74;92.00
